createdAt,value
2023-03-03T00:02:44.148Z,12.97
2023-03-03T00:07:47.983Z,27.60
2023-03-03T00:12:51.099Z,22.27
2023-03-03T00:17:54.018Z,17.63
2023-03-03T00:22:59.394Z,14.50
2023-03-03T00:28:15.320Z,21.03
2023-03-03T00:33:34.028Z,24.83
2023-03-03T00:38:39.244Z,24.50
2023-03-03T00:43:42.258Z,12.73
2023-03-03T00:48:45.062Z,18.13
2023-03-03T00:53:47.646Z,16.03
2023-03-03T00:58:50.986Z,24.67
2023-03-03T01:03:56.115Z,23.47
2023-03-03T01:08:59.477Z,21.57
2023-03-03T01:14:02.376Z,16.50
2023-03-03T01:19:05.092Z,22.93
2023-03-03T01:24:07.568Z,20.33
2023-03-03T01:29:10.135Z,16.97
2023-03-03T01:34:12.689Z,20.87
2023-03-03T01:39:15.582Z,19.80
2023-03-03T01:44:18.172Z,24.53
2023-03-03T01:49:30.854Z,14.93
2023-03-03T01:54:41.238Z,10.27
2023-03-03T01:59:48.329Z,15.73
2023-03-03T02:04:51.029Z,12.33
2023-03-03T02:09:59.680Z,10.60
2023-03-03T02:15:02.378Z,9.23
2023-03-03T02:20:11.292Z,11.57
2023-03-03T02:25:24.660Z,12.33
2023-03-03T02:30:27.740Z,10.53
2023-03-03T02:35:36.257Z,9.27
2023-03-03T02:40:44.110Z,12.73
2023-03-03T02:45:46.928Z,10.03
2023-03-03T02:50:50.113Z,9.03
2023-03-03T02:55:52.721Z,8.30
2023-03-03T03:00:55.734Z,9.80
2023-03-03T03:05:59.342Z,11.37
2023-03-03T03:11:03.849Z,9.37
2023-03-03T03:16:06.956Z,9.70
2023-03-03T03:21:11.759Z,9.23
2023-03-03T03:26:15.616Z,7.80
2023-03-03T03:31:21.033Z,6.37
2023-03-03T03:36:23.708Z,6.60
2023-03-03T03:41:27.246Z,10.33
2023-03-03T03:46:29.894Z,10.20
2023-03-03T03:51:34.061Z,8.07
2023-03-03T03:56:36.752Z,8.97
2023-03-03T04:01:40.023Z,8.40
2023-03-03T04:06:42.721Z,8.83
2023-03-03T04:11:45.358Z,7.80
2023-03-03T04:16:49.449Z,8.43
2023-03-03T04:21:52.967Z,9.93
2023-03-03T04:26:55.491Z,9.77
2023-03-03T04:31:58.278Z,9.33
2023-03-03T04:37:02.000Z,10.13
2023-03-03T04:42:05.345Z,7.47
2023-03-03T04:47:08.613Z,10.27
2023-03-03T04:52:11.752Z,7.40
2023-03-03T04:57:14.605Z,8.70
2023-03-03T05:02:18.281Z,8.00
2023-03-03T05:07:22.062Z,9.47
2023-03-03T05:12:24.622Z,8.83
2023-03-03T05:17:27.125Z,6.10
2023-03-03T05:22:29.586Z,6.93
2023-03-03T05:27:32.136Z,8.70
2023-03-03T05:32:36.270Z,7.87
2023-03-03T05:37:42.737Z,6.40
2023-03-03T05:42:45.832Z,7.87
2023-03-03T05:47:48.927Z,9.37
2023-03-03T05:52:52.847Z,7.80
2023-03-03T05:57:55.698Z,7.87
2023-03-03T06:02:58.253Z,9.90
2023-03-03T06:08:01.356Z,6.57
2023-03-03T06:13:03.833Z,7.80
2023-03-03T06:18:06.493Z,10.00
2023-03-03T06:23:10.309Z,8.83
2023-03-03T06:28:13.786Z,8.80
2023-03-03T06:33:16.405Z,10.50
2023-03-03T06:38:19.535Z,12.37
2023-03-03T06:43:22.045Z,12.00
2023-03-03T06:48:24.715Z,6.50
2023-03-03T06:53:27.620Z,9.83
2023-03-03T06:58:30.046Z,9.23
2023-03-03T07:03:36.090Z,9.87
2023-03-03T07:08:41.536Z,7.90
2023-03-03T07:13:49.887Z,8.70
2023-03-03T07:18:59.053Z,8.33
2023-03-03T07:24:16.886Z,8.00
2023-03-03T07:29:26.481Z,5.93
2023-03-03T07:34:40.249Z,7.40
2023-03-03T07:39:45.872Z,7.17
2023-03-03T07:44:52.412Z,6.87
2023-03-03T07:49:58.225Z,6.07
2023-03-03T07:55:18.446Z,10.10
2023-03-03T08:00:20.992Z,8.13
2023-03-03T08:05:33.850Z,6.10
2023-03-03T08:10:51.480Z,7.67
2023-03-03T08:16:09.552Z,5.93
2023-03-03T08:21:27.788Z,7.30
2023-03-03T08:26:30.340Z,7.27
2023-03-03T08:31:41.184Z,7.40
2023-03-03T08:36:44.459Z,6.73
2023-03-03T08:41:47.925Z,7.80
2023-03-03T08:46:50.518Z,9.20
2023-03-03T08:51:53.148Z,11.17
2023-03-03T08:56:55.674Z,10.97
2023-03-03T09:01:58.303Z,9.97
2023-03-03T09:07:00.942Z,8.57
2023-03-03T09:12:29.483Z,17.50
2023-03-03T09:17:35.855Z,11.03
2023-03-03T09:22:38.892Z,7.73
2023-03-03T09:27:41.740Z,11.43
2023-03-03T09:32:44.411Z,8.77
2023-03-03T09:37:50.929Z,8.17
2023-03-03T09:43:13.657Z,7.33
2023-03-03T09:48:27.498Z,8.60
2023-03-03T09:53:45.000Z,10.43
2023-03-03T09:59:16.406Z,5.70
2023-03-03T10:04:52.730Z,8.40
2023-03-03T10:10:14.113Z,11.50
2023-03-03T10:15:47.776Z,9.70
2023-03-03T10:21:00.751Z,10.17
2023-03-03T10:26:25.080Z,9.27
2023-03-03T10:31:51.650Z,9.53
2023-03-03T10:37:21.260Z,9.33
2023-03-03T10:42:45.008Z,8.83
2023-03-03T10:48:06.009Z,8.13
2023-03-03T10:53:34.656Z,6.87
2023-03-03T10:58:40.420Z,6.03
2023-03-03T11:04:16.419Z,6.77
2023-03-03T11:09:38.285Z,7.13
2023-03-03T11:14:55.646Z,6.17
2023-03-03T11:20:22.762Z,13.43
2023-03-03T11:25:36.116Z,15.90
2023-03-03T11:30:54.764Z,15.90
2023-03-03T11:36:25.790Z,11.60
2023-03-03T11:41:42.573Z,10.63
2023-03-03T11:47:00.387Z,10.33
2023-03-03T11:52:32.404Z,12.50
2023-03-03T11:58:03.085Z,6.57
2023-03-03T12:03:13.257Z,11.87
2023-03-03T12:08:36.201Z,12.80
2023-03-03T12:14:00.927Z,9.27
2023-03-03T12:19:22.255Z,11.90
2023-03-03T12:24:43.329Z,12.57
2023-03-03T12:30:13.353Z,12.57
2023-03-03T12:35:18.939Z,12.30
2023-03-03T12:40:31.726Z,10.53
2023-03-03T12:45:42.192Z,13.83
2023-03-03T12:51:03.614Z,12.53
2023-03-03T12:56:14.170Z,14.47
2023-03-03T13:01:44.004Z,12.63
2023-03-03T13:07:02.162Z,13.10
2023-03-03T13:12:28.025Z,14.10
2023-03-03T13:17:57.883Z,10.50
2023-03-03T13:23:12.702Z,11.53
2023-03-03T13:28:37.286Z,16.93
2023-03-03T13:33:51.376Z,10.63
2023-03-03T13:38:58.891Z,10.50
2023-03-03T13:44:14.497Z,11.13
2023-03-03T13:49:54.281Z,9.70
2023-03-03T13:55:18.057Z,12.17
2023-03-03T14:00:45.642Z,8.30
2023-03-03T14:05:59.510Z,10.93
2023-03-03T14:11:19.400Z,11.83
2023-03-03T14:16:54.792Z,10.97
2023-03-03T14:22:12.293Z,8.90
2023-03-03T14:27:26.931Z,5.80
2023-03-03T14:32:44.452Z,8.57
2023-03-03T14:37:50.310Z,7.57
2023-03-03T14:42:52.849Z,4.93
2023-03-03T14:47:55.592Z,8.10
2023-03-03T14:53:19.807Z,10.93
2023-03-03T14:58:35.204Z,11.53
2023-03-03T15:03:38.200Z,10.40
2023-03-03T15:08:42.579Z,8.77
2023-03-03T15:13:45.210Z,10.20
2023-03-03T15:19:02.401Z,9.23
2023-03-03T15:24:24.423Z,8.27
2023-03-03T15:29:32.114Z,8.00
2023-03-03T15:34:43.395Z,8.80
2023-03-03T15:39:51.972Z,9.63
2023-03-03T15:44:59.566Z,9.40
2023-03-03T15:50:40.447Z,9.57
2023-03-03T15:55:45.899Z,7.23
2023-03-03T16:01:11.131Z,5.57
2023-03-03T16:06:41.142Z,9.67
2023-03-03T16:12:15.877Z,8.90
2023-03-03T16:17:24.031Z,7.80
2023-03-03T16:22:58.173Z,10.63
2023-03-03T16:28:22.835Z,9.50
2023-03-03T16:33:31.202Z,7.33
2023-03-03T16:38:44.142Z,8.23
2023-03-03T16:44:20.804Z,10.33
2023-03-03T16:49:39.368Z,8.70
2023-03-03T16:55:11.331Z,8.60
2023-03-03T17:00:20.055Z,11.90
2023-03-03T17:05:41.358Z,8.40
2023-03-03T17:11:01.032Z,8.07
2023-03-03T17:16:17.801Z,11.47
2023-03-03T17:21:35.669Z,9.40
2023-03-03T17:27:13.026Z,11.13
2023-03-03T17:32:30.634Z,16.67
2023-03-03T17:37:44.729Z,16.03
2023-03-03T17:43:14.195Z,19.90
2023-03-03T17:48:23.178Z,18.50
2023-03-03T17:53:44.101Z,18.03
2023-03-03T17:59:01.779Z,19.00
2023-03-03T18:04:26.437Z,21.63
2023-03-03T18:09:40.839Z,20.70
2023-03-03T18:15:05.343Z,22.60
2023-03-03T18:20:10.938Z,19.20
2023-03-03T18:25:16.746Z,20.47
2023-03-03T18:30:22.226Z,16.90
2023-03-03T18:35:38.827Z,16.23
2023-03-03T18:41:21.629Z,18.67
2023-03-03T18:46:24.352Z,4.20
2023-03-03T18:51:39.120Z,4.90
2023-03-03T18:56:53.279Z,9.40
2023-03-03T19:02:13.777Z,7.97
2023-03-03T19:07:28.293Z,9.03
2023-03-03T19:12:45.659Z,6.80
2023-03-03T19:17:50.036Z,7.20
2023-03-03T19:23:05.744Z,3.33
2023-03-03T19:28:20.288Z,7.53
2023-03-03T19:33:41.317Z,7.83
2023-03-03T19:39:17.724Z,7.23
2023-03-03T19:44:31.861Z,7.90
2023-03-03T19:50:06.887Z,6.37
2023-03-03T19:55:22.470Z,8.43
2023-03-03T20:00:38.926Z,8.37
2023-03-03T20:05:52.451Z,2.63
2023-03-03T20:11:17.068Z,4.87
2023-03-03T20:16:33.604Z,6.13
2023-03-03T20:21:43.471Z,4.97
2023-03-03T20:27:05.318Z,6.70
2023-03-03T20:32:32.837Z,5.33
2023-03-03T20:37:50.109Z,4.97
2023-03-03T20:43:24.569Z,8.70
2023-03-03T20:48:45.404Z,7.10
2023-03-03T20:54:11.871Z,4.77
2023-03-03T20:59:32.079Z,6.20
2023-03-03T21:04:36.291Z,7.30
2023-03-03T21:09:39.713Z,4.73
2023-03-03T21:14:42.258Z,2.73
2023-03-03T21:19:44.969Z,6.63
2023-03-03T21:24:48.760Z,6.43
2023-03-03T21:30:07.394Z,6.00
2023-03-03T21:35:11.693Z,11.37
2023-03-03T21:40:30.230Z,6.83
2023-03-03T21:45:32.849Z,8.03
2023-03-03T21:50:36.182Z,7.17
2023-03-03T21:55:38.563Z,5.67
2023-03-03T22:00:41.087Z,9.13
2023-03-03T22:05:43.995Z,4.33
2023-03-03T22:10:50.876Z,9.10
2023-03-03T22:15:55.221Z,5.40
2023-03-03T22:20:57.777Z,8.57
2023-03-03T22:26:02.178Z,7.33
2023-03-03T22:31:04.889Z,4.97
2023-03-03T22:36:08.410Z,8.33
2023-03-03T22:41:11.202Z,11.43
2023-03-03T22:46:15.172Z,5.33
2023-03-03T22:51:18.367Z,7.20
2023-03-03T22:56:20.988Z,6.30
2023-03-03T23:01:23.529Z,5.87
2023-03-03T23:06:26.028Z,8.40
2023-03-03T23:11:28.627Z,11.10
2023-03-03T23:16:31.301Z,11.70
2023-03-03T23:21:33.943Z,7.90
2023-03-03T23:26:36.821Z,5.87
2023-03-03T23:31:39.445Z,4.10
2023-03-03T23:36:42.016Z,5.17
2023-03-03T23:41:45.246Z,6.30
2023-03-03T23:46:47.820Z,6.20
2023-03-03T23:51:50.357Z,4.63
2023-03-03T23:56:52.907Z,4.47
